Time,TemperatureF,DewpointF,PressureIn,WindDirection,WindDirectionDegrees,WindSpeedMPH,WindSpeedGustMPH,Humidity,HourlyPrecipIn,Conditions,Clouds,dailyrainin,SoftwareType,DateUTC
2013-03-25 00:00:00,19.7,14.8,30.26,NNW,328,2.0,10.0,81,0.00,,,0.00,VWS V14.01,2013-03-25 05:00:00,
2013-03-25 00:02:00,19.7,14.8,30.26,North,354,3.0,10.0,81,0.00,,,0.00,VWS V14.01,2013-03-25 05:02:00,
2013-03-25 00:07:00,19.5,15.5,30.26,North,356,6.0,10.0,84,0.00,,,0.00,VWS V14.01,2013-03-25 05:07:00,
2013-03-25 00:12:00,19.5,15.2,30.26,North,359,4.0,10.0,83,0.00,,,0.00,VWS V14.01,2013-03-25 05:12:00,
2013-03-25 00:15:00,19.4,14.8,30.27,NNW,347,4.0,10.0,82,0.00,,,0.00,VWS V14.01,2013-03-25 05:15:00,
2013-03-25 00:17:00,19.4,14.8,30.27,NNW,339,5.0,10.0,82,0.00,,,0.00,VWS V14.01,2013-03-25 05:17:00,
2013-03-25 00:22:00,19.2,15.2,30.27,NNW,347,2.0,5.0,84,0.00,,,0.00,VWS V14.01,2013-03-25 05:22:00,
2013-03-25 00:27:00,19.1,15.3,30.27,North,357,1.0,5.0,85,0.00,,,0.00,VWS V14.01,2013-03-25 05:27:00,
2013-03-25 00:30:00,18.8,15.6,30.27,North,356,2.0,5.0,87,0.00,,,0.00,VWS V14.01,2013-03-25 05:30:00,
2013-03-25 00:32:00,18.8,15.6,30.27,North,357,5.0,5.0,87,0.00,,,0.00,VWS V14.01,2013-03-25 05:32:00,
2013-03-25 00:37:00,18.8,15.8,30.27,NNW,346,6.0,7.0,88,0.00,,,0.00,VWS V14.01,2013-03-25 05:37:00,
2013-03-25 00:42:00,18.8,15.8,30.27,North,359,5.0,7.0,88,0.00,,,0.00,VWS V14.01,2013-03-25 05:42:00,
2013-03-25 00:45:00,19.2,16.5,30.27,NNW,347,5.0,10.0,89,0.00,,,0.00,VWS V14.01,2013-03-25 05:45:00,
2013-03-25 00:47:00,19.1,16.4,30.27,North,359,7.0,10.0,89,0.00,,,0.00,VWS V14.01,2013-03-25 05:47:00,
2013-03-25 00:52:00,19.4,16.4,30.27,NNW,330,3.0,11.0,88,0.00,,,0.00,VWS V14.01,2013-03-25 05:52:00,
2013-03-25 00:57:00,19.2,16.0,30.27,North,357,0.0,11.0,87,0.00,,,0.00,VWS V14.01,2013-03-25 05:57:00,
2013-03-25 01:00:00,18.9,15.9,30.28,North,352,2.0,11.0,88,0.00,,,0.00,VWS V14.01,2013-03-25 06:00:00,
2013-03-25 01:02:00,18.9,15.9,30.28,North,352,1.0,11.0,88,0.00,,,0.00,VWS V14.01,2013-03-25 06:02:00,
2013-03-25 01:07:00,18.8,16.4,30.28,North,352,0.0,5.0,90,0.00,,,0.00,VWS V14.01,2013-03-25 06:07:00,
2013-03-25 01:12:00,18.6,16.9,30.28,North,349,6.0,6.0,93,0.00,,,0.00,VWS V14.01,2013-03-25 06:12:00,
2013-03-25 01:15:00,18.6,16.9,30.26,NNW,346,3.0,6.0,93,0.00,,,0.00,VWS V14.01,2013-03-25 06:15:00,
2013-03-25 01:17:00,18.6,16.9,30.26,NNW,346,3.0,6.0,93,0.00,,,0.00,VWS V14.01,2013-03-25 06:17:00,
2013-03-25 01:22:00,18.8,17.4,30.26,NNW,328,2.0,7.0,94,0.00,,,0.00,VWS V14.01,2013-03-25 06:22:00,
2013-03-25 01:27:00,18.8,16.6,30.26,NNW,346,3.0,7.0,91,0.00,,,0.00,VWS V14.01,2013-03-25 06:27:00,
2013-03-25 01:30:00,18.8,16.6,30.27,North,359,2.0,7.0,91,0.00,,,0.00,VWS V14.01,2013-03-25 06:30:00,
2013-03-25 01:32:00,18.8,16.6,30.27,North,359,2.0,7.0,91,0.00,,,0.00,VWS V14.01,2013-03-25 06:32:00,
2013-03-25 01:37:00,18.8,15.3,30.27,NNW,333,5.0,7.0,86,0.00,,,0.00,VWS V14.01,2013-03-25 06:37:00,
2013-03-25 01:42:00,18.6,15.1,30.27,NNW,333,4.0,7.0,86,0.00,,,0.00,VWS V14.01,2013-03-25 06:42:00,
2013-03-25 01:45:00,18.6,14.9,30.27,North,349,6.0,7.0,85,0.00,,,0.00,VWS V14.01,2013-03-25 06:45:00,
2013-03-25 01:47:00,18.6,14.9,30.27,North,349,6.0,7.0,85,0.00,,,0.00,VWS V14.01,2013-03-25 06:47:00,
2013-03-25 01:52:00,18.6,14.9,30.27,North,359,6.0,7.0,85,0.00,,,0.00,VWS V14.01,2013-03-25 06:52:00,
2013-03-25 01:57:00,18.6,14.9,30.27,NNW,336,2.0,7.0,85,0.00,,,0.00,VWS V14.01,2013-03-25 06:57:00,
2013-03-25 02:00:00,18.6,14.9,30.27,NNW,346,5.0,8.0,85,0.00,,,0.00,VWS V14.01,2013-03-25 07:00:00,
2013-03-25 02:02:00,18.6,14.9,30.27,NNW,346,1.0,5.0,85,0.00,,,0.00,VWS V14.01,2013-03-25 07:02:00,
2013-03-25 02:08:00,18.4,14.6,30.27,NNW,337,4.0,6.0,85,0.00,,,0.00,VWS V14.01,2013-03-25 07:08:00,
2013-03-25 02:13:00,18.4,14.6,30.27,North,352,2.0,6.0,85,0.00,,,0.00,VWS V14.01,2013-03-25 07:13:00,
2013-03-25 02:15:00,18.3,14.8,30.27,North,350,4.0,6.0,86,0.00,,,0.00,VWS V14.01,2013-03-25 07:15:00,
2013-03-25 02:18:00,18.3,14.6,30.27,NNW,340,5.0,5.0,85,0.00,,,0.00,VWS V14.01,2013-03-25 07:18:00,
2013-03-25 02:23:00,18.3,14.6,30.27,North,359,2.0,8.0,85,0.00,,,0.00,VWS V14.01,2013-03-25 07:23:00,
2013-03-25 02:28:00,18.1,14.4,30.27,North,354,5.0,8.0,85,0.00,,,0.00,VWS V14.01,2013-03-25 07:28:00,
2013-03-25 02:30:00,17.8,14.1,30.28,North,359,0.0,8.0,85,0.00,,,0.00,VWS V14.01,2013-03-25 07:30:00,
2013-03-25 02:33:00,17.8,14.1,30.28,North,359,3.0,3.0,85,0.00,,,0.00,VWS V14.01,2013-03-25 07:33:00,
2013-03-25 02:38:00,17.8,14.3,30.28,North,354,1.0,7.0,86,0.00,,,0.00,VWS V14.01,2013-03-25 07:38:00,
2013-03-25 02:43:00,17.8,14.1,30.28,North,354,4.0,7.0,85,0.00,,,0.00,VWS V14.01,2013-03-25 07:43:00,
2013-03-25 02:45:00,17.7,14.0,30.28,NNW,332,4.0,7.0,85,0.00,,,0.00,VWS V14.01,2013-03-25 07:45:00,
2013-03-25 02:48:00,17.7,13.7,30.28,North,352,0.0,5.0,84,0.00,,,0.00,VWS V14.01,2013-03-25 07:48:00,
2013-03-25 02:53:00,17.7,14.0,30.28,NW,306,2.0,7.0,85,0.00,,,0.00,VWS V14.01,2013-03-25 07:53:00,
2013-03-25 02:58:00,17.7,14.5,30.28,North,357,3.0,7.0,87,0.00,,,0.00,VWS V14.01,2013-03-25 07:58:00,
2013-03-25 03:00:00,17.7,14.5,30.28,NNW,344,3.0,7.0,87,0.00,,,0.00,VWS V14.01,2013-03-25 08:00:00,
2013-03-25 03:03:00,17.7,14.8,30.28,North,354,5.0,6.0,88,0.00,,,0.00,VWS V14.01,2013-03-25 08:03:00,
2013-03-25 03:08:00,17.7,14.5,30.28,NNW,343,1.0,9.0,87,0.00,,,0.00,VWS V14.01,2013-03-25 08:08:00,
2013-03-25 03:13:00,17.7,14.5,30.28,NNW,344,6.0,9.0,87,0.00,,,0.00,VWS V14.01,2013-03-25 08:13:00,
2013-03-25 03:15:00,17.7,14.8,30.27,NNW,330,5.0,9.0,88,0.00,,,0.00,VWS V14.01,2013-03-25 08:15:00,
2013-03-25 03:18:00,17.8,14.9,30.27,North,359,1.0,5.0,88,0.00,,,0.00,VWS V14.01,2013-03-25 08:18:00,
2013-03-25 03:23:00,17.8,14.6,30.27,NNW,333,3.0,10.0,87,0.00,,,0.00,VWS V14.01,2013-03-25 08:23:00,
2013-03-25 03:28:00,17.8,14.6,30.27,North,356,5.0,11.0,87,0.00,,,0.00,VWS V14.01,2013-03-25 08:28:00,
2013-03-25 03:30:00,17.7,14.2,30.27,NNW,346,6.0,12.0,86,0.00,,,0.00,VWS V14.01,2013-03-25 08:30:00,
2013-03-25 03:33:00,17.7,14.8,30.27,NNW,346,3.0,10.0,88,0.00,,,0.00,VWS V14.01,2013-03-25 08:33:00,
2013-03-25 03:38:00,17.7,14.8,30.27,NW,326,5.0,10.0,88,0.00,,,0.00,VWS V14.01,2013-03-25 08:38:00,
2013-03-25 03:43:00,17.5,14.3,30.27,North,354,9.0,10.0,87,0.00,,,0.00,VWS V14.01,2013-03-25 08:43:00,
2013-03-25 03:45:00,17.5,14.3,30.27,North,354,3.0,11.0,87,0.00,,,0.00,VWS V14.01,2013-03-25 08:45:00,
2013-03-25 03:48:00,17.5,13.8,30.27,NNW,344,5.0,8.0,85,0.00,,,0.00,VWS V14.01,2013-03-25 08:48:00,
2013-03-25 03:53:00,17.5,14.0,30.27,NNW,344,7.0,11.0,86,0.00,,,0.00,VWS V14.01,2013-03-25 08:53:00,
2013-03-25 03:58:00,17.5,14.0,30.27,NW,316,6.0,12.0,86,0.00,,,0.00,VWS V14.01,2013-03-25 08:58:00,
2013-03-25 04:00:00,17.5,14.0,30.27,NNW,344,2.0,14.0,86,0.00,,,0.00,VWS V14.01,2013-03-25 09:00:00,
2013-03-25 04:03:00,17.5,14.0,30.27,North,349,5.0,7.0,86,0.00,,,0.00,VWS V14.01,2013-03-25 09:03:00,
2013-03-25 04:08:00,17.3,13.8,30.27,NNW,337,2.0,10.0,86,0.00,,,0.00,VWS V14.01,2013-03-25 09:08:00,
2013-03-25 04:13:00,17.5,14.3,30.27,North,359,6.0,11.0,87,0.00,,,0.00,VWS V14.01,2013-03-25 09:13:00,
2013-03-25 04:15:00,17.5,13.8,30.27,NNW,332,5.0,13.0,85,0.00,,,0.00,VWS V14.01,2013-03-25 09:15:00,
2013-03-25 04:18:00,17.5,14.0,30.27,NW,322,6.0,9.0,86,0.00,,,0.00,VWS V14.01,2013-03-25 09:18:00,
2013-03-25 04:23:00,17.3,13.6,30.27,North,356,5.0,10.0,85,0.00,,,0.00,VWS V14.01,2013-03-25 09:23:00,
2013-03-25 04:28:00,17.2,13.5,30.27,North,359,6.0,10.0,85,0.00,,,0.00,VWS V14.01,2013-03-25 09:28:00,
2013-03-25 04:30:00,17.0,13.5,30.28,North,356,4.0,10.0,86,0.00,,,0.00,VWS V14.01,2013-03-25 09:30:00,
2013-03-25 04:33:00,17.0,13.5,30.28,NW,325,2.0,4.0,86,0.00,,,0.00,VWS V14.01,2013-03-25 09:33:00,
2013-03-25 04:38:00,17.0,13.5,30.28,NNW,337,2.0,11.0,86,0.00,,,0.00,VWS V14.01,2013-03-25 09:38:00,
2013-03-25 04:43:00,17.2,13.7,30.28,North,352,5.0,11.0,86,0.00,,,0.00,VWS V14.01,2013-03-25 09:43:00,
2013-03-25 04:45:00,17.2,13.7,30.28,NNW,335,4.0,11.0,86,0.00,,,0.00,VWS V14.01,2013-03-25 09:45:00,
2013-03-25 04:48:00,17.2,13.7,30.28,NNW,343,1.0,8.0,86,0.00,,,0.00,VWS V14.01,2013-03-25 09:48:00,
2013-03-25 04:53:00,17.0,13.5,30.28,NNW,333,6.0,9.0,86,0.00,,,0.00,VWS V14.01,2013-03-25 09:53:00,
2013-03-25 04:58:00,16.9,13.2,30.28,North,350,5.0,12.0,85,0.00,,,0.00,VWS V14.01,2013-03-25 09:58:00,
2013-03-25 05:00:00,17.0,13.8,30.28,North,0,6.0,12.0,87,0.00,,,0.00,VWS V14.01,2013-03-25 10:00:00,
2013-03-25 05:03:00,17.0,13.8,30.28,North,354,8.0,8.0,87,0.00,,,0.00,VWS V14.01,2013-03-25 10:03:00,
2013-03-25 05:08:00,17.0,13.5,30.28,North,354,3.0,10.0,86,0.00,,,0.00,VWS V14.01,2013-03-25 10:08:00,
2013-03-25 05:13:00,16.9,13.4,30.28,NNW,340,3.0,12.0,86,0.00,,,0.00,VWS V14.01,2013-03-25 10:13:00,
2013-03-25 05:15:00,16.9,13.2,30.28,NNW,347,7.0,12.0,85,0.00,,,0.00,VWS V14.01,2013-03-25 10:15:00,
2013-03-25 05:18:00,16.9,13.2,30.28,North,359,5.0,9.0,85,0.00,,,0.00,VWS V14.01,2013-03-25 10:18:00,
2013-03-25 05:23:00,17.0,13.0,30.28,NNW,346,9.0,11.0,84,0.00,,,0.00,VWS V14.01,2013-03-25 10:23:00,
2013-03-25 05:28:00,16.9,12.9,30.28,NNW,340,5.0,11.0,84,0.00,,,0.00,VWS V14.01,2013-03-25 10:28:00,
2013-03-25 05:30:00,16.9,12.9,30.28,NNW,340,8.0,11.0,84,0.00,,,0.00,VWS V14.01,2013-03-25 10:30:00,
2013-03-25 05:33:00,16.9,12.9,30.28,North,349,5.0,8.0,84,0.00,,,0.00,VWS V14.01,2013-03-25 10:33:00,
2013-03-25 05:38:00,16.9,13.2,30.28,NNW,342,5.0,13.0,85,0.00,,,0.00,VWS V14.01,2013-03-25 10:38:00,
2013-03-25 05:43:00,16.9,13.4,30.28,North,359,7.0,13.0,86,0.00,,,0.00,VWS V14.01,2013-03-25 10:43:00,
2013-03-25 05:45:00,16.9,13.4,30.29,North,357,2.0,13.0,86,0.00,,,0.00,VWS V14.01,2013-03-25 10:45:00,
2013-03-25 05:48:00,16.7,13.5,30.29,NW,308,6.0,10.0,87,0.00,,,0.00,VWS V14.01,2013-03-25 10:48:00,
2013-03-25 05:53:00,16.7,13.5,30.29,NW,325,5.0,10.0,87,0.00,,,0.00,VWS V14.01,2013-03-25 10:53:00,
2013-03-25 05:58:00,16.4,12.9,30.29,NNW,335,3.0,10.0,86,0.00,,,0.00,VWS V14.01,2013-03-25 10:58:00,
2013-03-25 06:00:00,16.4,12.9,30.30,NNW,337,5.0,10.0,86,0.00,,,0.00,VWS V14.01,2013-03-25 11:00:00,
2013-03-25 06:03:00,16.4,13.2,30.30,NNW,335,2.0,10.0,87,0.00,,,0.00,VWS V14.01,2013-03-25 11:03:00,
2013-03-25 06:08:00,16.2,13.0,30.30,NNW,347,4.0,10.0,87,0.00,,,0.00,VWS V14.01,2013-03-25 11:08:00,
2013-03-25 06:13:00,16.2,12.8,30.30,NNW,343,5.0,11.0,86,0.00,,,0.00,VWS V14.01,2013-03-25 11:13:00,
2013-03-25 06:15:00,16.2,13.0,30.30,North,357,3.0,11.0,87,0.00,,,0.00,VWS V14.01,2013-03-25 11:15:00,
2013-03-25 06:18:00,16.2,13.0,30.30,North,0,8.0,8.0,87,0.00,,,0.00,VWS V14.01,2013-03-25 11:18:00,
2013-03-25 06:23:00,16.2,12.8,30.30,North,359,5.0,8.0,86,0.00,,,0.00,VWS V14.01,2013-03-25 11:23:00,
2013-03-25 06:28:00,16.1,12.9,30.30,NNW,336,2.0,8.0,87,0.00,,,0.00,VWS V14.01,2013-03-25 11:28:00,
2013-03-25 06:30:00,16.1,12.7,30.31,North,354,5.0,8.0,86,0.00,,,0.00,VWS V14.01,2013-03-25 11:30:00,
2013-03-25 06:33:00,16.1,12.9,30.31,WNW,302,2.0,5.0,87,0.00,,,0.00,VWS V14.01,2013-03-25 11:33:00,
2013-03-25 06:38:00,15.9,12.7,30.31,NW,308,5.0,7.0,87,0.00,,,0.00,VWS V14.01,2013-03-25 11:38:00,
2013-03-25 06:43:00,15.7,12.5,30.31,North,350,2.0,7.0,87,0.00,,,0.00,VWS V14.01,2013-03-25 11:43:00,
2013-03-25 06:45:00,15.7,12.3,30.31,North,357,3.0,10.0,86,0.00,,,0.00,VWS V14.01,2013-03-25 11:45:00,
2013-03-25 06:48:00,15.7,13.0,30.31,NW,325,4.0,5.0,89,0.00,,,0.00,VWS V14.01,2013-03-25 11:48:00,
2013-03-25 06:53:00,15.7,12.8,30.31,NNW,329,5.0,6.0,88,0.00,,,0.00,VWS V14.01,2013-03-25 11:53:00,
2013-03-25 06:58:00,15.7,12.3,30.31,NNW,346,4.0,7.0,86,0.00,,,0.00,VWS V14.01,2013-03-25 11:58:00,
2013-03-25 07:00:00,15.9,12.5,30.31,NNW,337,2.0,7.0,86,0.00,,,0.00,VWS V14.01,2013-03-25 12:00:00,
2013-03-25 07:03:00,15.9,13.2,30.31,NW,323,8.0,8.0,89,0.00,,,0.00,VWS V14.01,2013-03-25 12:03:00,
2013-03-25 07:08:00,16.1,12.7,30.31,NNW,337,5.0,8.0,86,0.00,,,0.00,VWS V14.01,2013-03-25 12:08:00,
2013-03-25 07:13:00,16.1,12.9,30.31,NW,309,2.0,8.0,87,0.00,,,0.00,VWS V14.01,2013-03-25 12:13:00,
2013-03-25 07:15:00,16.1,12.4,30.32,North,357,3.0,8.0,85,0.00,,,0.00,VWS V14.01,2013-03-25 12:15:00,
2013-03-25 07:18:00,16.1,12.4,30.32,NNW,340,3.0,5.0,85,0.00,,,0.00,VWS V14.01,2013-03-25 12:18:00,
2013-03-25 07:23:00,15.9,12.7,30.32,North,354,3.0,10.0,87,0.00,,,0.00,VWS V14.01,2013-03-25 12:23:00,
2013-03-25 07:28:00,15.9,13.0,30.32,NNW,335,4.0,10.0,88,0.00,,,0.00,VWS V14.01,2013-03-25 12:28:00,
2013-03-25 07:30:00,15.9,12.7,30.32,NNW,344,5.0,10.0,87,0.00,,,0.00,VWS V14.01,2013-03-25 12:30:00,
2013-03-25 07:33:00,15.7,12.0,30.32,NNW,347,2.0,9.0,85,0.00,,,0.00,VWS V14.01,2013-03-25 12:33:00,
2013-03-25 07:38:00,15.7,12.3,30.32,North,354,12.0,12.0,86,0.00,,,0.00,VWS V14.01,2013-03-25 12:38:00,
2013-03-25 07:43:00,15.4,12.0,30.32,NW,318,5.0,12.0,86,0.00,,,0.00,VWS V14.01,2013-03-25 12:43:00,
2013-03-25 07:45:00,15.4,12.2,30.33,NNW,333,2.0,12.0,87,0.00,,,0.00,VWS V14.01,2013-03-25 12:45:00,
2013-03-25 07:48:00,15.4,11.7,30.33,NNW,337,2.0,7.0,85,0.00,,,0.00,VWS V14.01,2013-03-25 12:48:00,
2013-03-25 07:53:00,15.4,11.7,30.33,North,352,4.0,12.0,85,0.00,,,0.00,VWS V14.01,2013-03-25 12:53:00,
2013-03-25 07:58:00,15.2,11.5,30.33,NNW,332,5.0,12.0,85,0.00,,,0.00,VWS V14.01,2013-03-25 12:58:00,
2013-03-25 08:00:00,15.2,11.8,30.34,NNW,330,1.0,12.0,86,0.00,,,0.00,VWS V14.01,2013-03-25 13:00:00,
2013-03-25 08:03:00,15.2,11.5,30.34,NNW,337,3.0,5.0,85,0.00,,,0.00,VWS V14.01,2013-03-25 13:03:00,
2013-03-25 08:08:00,15.4,11.7,30.34,NNW,333,5.0,7.0,85,0.00,,,0.00,VWS V14.01,2013-03-25 13:08:00,
2013-03-25 08:13:00,15.4,12.0,30.34,NNW,329,1.0,7.0,86,0.00,,,0.00,VWS V14.01,2013-03-25 13:13:00,
2013-03-25 08:15:00,15.4,12.0,30.35,NNW,336,4.0,7.0,86,0.00,,,0.00,VWS V14.01,2013-03-25 13:15:00,
2013-03-25 08:18:00,15.6,12.2,30.35,NNW,337,3.0,4.0,86,0.00,,,0.00,VWS V14.01,2013-03-25 13:18:00,
2013-03-25 08:23:00,15.6,12.2,30.35,NW,326,3.0,7.0,86,0.00,,,0.00,VWS V14.01,2013-03-25 13:23:00,
2013-03-25 08:28:00,15.6,12.2,30.35,NNW,344,2.0,7.0,86,0.00,,,0.00,VWS V14.01,2013-03-25 13:28:00,
2013-03-25 08:30:00,15.7,11.7,30.36,NW,325,5.0,7.0,84,0.00,,,0.00,VWS V14.01,2013-03-25 13:30:00,
2013-03-25 08:33:00,15.9,11.9,30.36,NW,320,3.0,7.0,84,0.00,,,0.00,VWS V14.01,2013-03-25 13:33:00,
2013-03-25 08:38:00,16.1,12.4,30.36,NNW,336,1.0,8.0,85,0.00,,,0.00,VWS V14.01,2013-03-25 13:38:00,
2013-03-25 08:43:00,16.2,12.8,30.36,NNW,336,2.0,8.0,86,0.00,,,0.00,VWS V14.01,2013-03-25 13:43:00,
2013-03-25 08:45:00,16.4,12.7,30.36,NNW,330,5.0,8.0,85,0.00,,,0.00,VWS V14.01,2013-03-25 13:45:00,
2013-03-25 08:48:00,16.5,12.8,30.36,NNW,336,5.0,6.0,85,0.00,,,0.00,VWS V14.01,2013-03-25 13:48:00,
2013-03-25 08:53:00,16.7,12.7,30.36,NW,323,5.0,10.0,84,0.00,,,0.00,VWS V14.01,2013-03-25 13:53:00,
2013-03-25 08:58:00,17.0,13.8,30.36,North,359,3.0,10.0,87,0.00,,,0.00,VWS V14.01,2013-03-25 13:58:00,
2013-03-25 09:00:00,17.0,13.3,30.36,NW,309,4.0,12.0,85,0.00,,,0.00,VWS V14.01,2013-03-25 14:00:00,
2013-03-25 09:03:00,17.2,12.9,30.36,NNW,339,6.0,7.0,83,0.00,,,0.00,VWS V14.01,2013-03-25 14:03:00,
2013-03-25 09:08:00,17.3,13.0,30.36,NW,320,2.0,10.0,83,0.00,,,0.00,VWS V14.01,2013-03-25 14:08:00,
2013-03-25 09:13:00,17.5,13.5,30.36,North,0,3.0,10.0,84,0.00,,,0.00,VWS V14.01,2013-03-25 14:13:00,
2013-03-25 09:15:00,17.7,13.1,30.37,North,359,2.0,10.0,82,0.00,,,0.00,VWS V14.01,2013-03-25 14:15:00,
2013-03-25 09:18:00,17.7,12.9,30.37,NNW,347,5.0,7.0,81,0.00,,,0.00,VWS V14.01,2013-03-25 14:18:00,
2013-03-25 09:24:00,18.0,12.9,30.37,NW,316,2.0,11.0,80,0.00,,,0.00,VWS V14.01,2013-03-25 14:24:00,
2013-03-25 09:29:00,18.1,13.5,30.37,NNW,342,4.0,11.0,82,0.00,,,0.00,VWS V14.01,2013-03-25 14:29:00,
2013-03-25 09:30:00,18.4,13.6,30.37,NNW,330,2.0,14.0,81,0.00,,,0.00,VWS V14.01,2013-03-25 14:30:00,
2013-03-25 09:34:00,18.4,13.6,30.37,North,359,7.0,7.0,81,0.00,,,0.00,VWS V14.01,2013-03-25 14:34:00,
2013-03-25 09:39:00,18.8,14.5,30.37,NW,318,6.0,11.0,83,0.00,,,0.00,VWS V14.01,2013-03-25 14:39:00,
2013-03-25 09:44:00,18.9,13.8,30.37,North,359,11.0,12.0,80,0.00,,,0.00,VWS V14.01,2013-03-25 14:44:00,
2013-03-25 09:45:00,19.2,14.6,30.37,North,10,3.0,12.0,82,0.00,,,0.00,VWS V14.01,2013-03-25 14:45:00,
2013-03-25 09:49:00,19.4,14.2,30.37,North,352,13.0,13.0,80,0.00,,,0.00,VWS V14.01,2013-03-25 14:49:00,
2013-03-25 09:54:00,19.5,15.2,30.37,North,359,14.0,18.0,83,0.00,,,0.00,VWS V14.01,2013-03-25 14:54:00,
2013-03-25 09:59:00,19.5,14.1,30.37,North,359,12.0,19.0,79,0.00,,,0.00,VWS V14.01,2013-03-25 14:59:00,
2013-03-25 10:00:00,19.4,13.4,30.37,North,352,10.0,19.0,77,0.00,,,0.00,VWS V14.01,2013-03-25 15:00:00,
2013-03-25 10:04:00,19.4,13.1,30.37,North,352,10.0,16.0,76,0.00,,,0.00,VWS V14.01,2013-03-25 15:04:00,
2013-03-25 10:09:00,19.4,13.1,30.37,NNW,347,10.0,16.0,76,0.00,,,0.00,VWS V14.01,2013-03-25 15:09:00,
2013-03-25 10:14:00,19.4,13.4,30.37,NW,326,1.0,16.0,77,0.00,,,0.00,VWS V14.01,2013-03-25 15:14:00,
2013-03-25 10:15:00,19.5,14.4,30.38,NNW,332,5.0,16.0,80,0.00,,,0.00,VWS V14.01,2013-03-25 15:15:00,
2013-03-25 10:19:00,19.7,14.5,30.38,North,354,2.0,7.0,80,0.00,,,0.00,VWS V14.01,2013-03-25 15:19:00,
2013-03-25 10:24:00,19.5,13.8,30.38,North,349,2.0,10.0,78,0.00,,,0.00,VWS V14.01,2013-03-25 15:24:00,
2013-03-25 10:29:00,19.9,13.6,30.38,North,359,9.0,14.0,76,0.00,,,0.00,VWS V14.01,2013-03-25 15:29:00,
2013-03-25 10:30:00,20.2,14.2,30.38,NW,318,11.0,21.0,77,0.00,,,0.00,VWS V14.01,2013-03-25 15:30:00,
2013-03-25 10:34:00,20.3,13.0,30.38,North,357,18.0,22.0,73,0.00,,,0.00,VWS V14.01,2013-03-25 15:34:00,
2013-03-25 10:39:00,20.0,12.1,30.38,North,359,11.0,22.0,71,0.00,,,0.00,VWS V14.01,2013-03-25 15:39:00,
2013-03-25 10:44:00,20.0,11.1,30.38,North,359,16.0,24.0,68,0.00,,,0.00,VWS V14.01,2013-03-25 15:44:00,
2013-03-25 10:45:00,20.2,12.0,30.38,North,357,15.0,24.0,70,0.00,,,0.00,VWS V14.01,2013-03-25 15:45:00,
2013-03-25 10:49:00,20.3,12.4,30.38,North,350,10.0,20.0,71,0.00,,,0.00,VWS V14.01,2013-03-25 15:49:00,
2013-03-25 10:54:00,20.8,10.9,30.38,North,349,10.0,21.0,65,0.00,,,0.00,VWS V14.01,2013-03-25 15:54:00,
2013-03-25 10:59:00,21.4,11.5,30.38,NNW,343,12.0,21.0,65,0.00,,,0.00,VWS V14.01,2013-03-25 15:59:00,
2013-03-25 11:00:00,21.4,10.1,30.38,North,359,9.0,21.0,61,0.00,,,0.00,VWS V14.01,2013-03-25 16:00:00,
2013-03-25 11:04:00,21.1,10.5,30.38,North,352,17.0,20.0,63,0.00,,,0.00,VWS V14.01,2013-03-25 16:04:00,
2013-03-25 11:09:00,21.1,10.1,30.38,North,354,13.0,21.0,62,0.00,,,0.00,VWS V14.01,2013-03-25 16:09:00,
2013-03-25 11:14:00,20.8,9.9,30.38,North,359,12.0,21.0,62,0.00,,,0.00,VWS V14.01,2013-03-25 16:14:00,
2013-03-25 11:15:00,20.6,11.4,30.39,NNW,344,13.0,21.0,67,0.00,,,0.00,VWS V14.01,2013-03-25 16:15:00,
2013-03-25 11:19:00,20.8,12.9,30.39,North,359,17.0,24.0,71,0.00,,,0.00,VWS V14.01,2013-03-25 16:19:00,
2013-03-25 11:24:00,21.0,12.4,30.39,North,357,21.0,24.0,69,0.00,,,0.00,VWS V14.01,2013-03-25 16:24:00,
2013-03-25 11:29:00,21.0,10.0,30.39,North,359,13.0,24.0,62,0.00,,,0.00,VWS V14.01,2013-03-25 16:29:00,
2013-03-25 11:30:00,21.3,11.7,30.39,North,359,19.0,24.0,66,0.00,,,0.00,VWS V14.01,2013-03-25 16:30:00,
2013-03-25 11:34:00,21.6,12.7,30.39,North,357,17.0,21.0,68,0.00,,,0.00,VWS V14.01,2013-03-25 16:34:00,
2013-03-25 11:39:00,21.8,13.2,30.39,North,354,16.0,24.0,69,0.00,,,0.00,VWS V14.01,2013-03-25 16:39:00,
2013-03-25 11:44:00,21.8,10.1,30.39,North,354,20.0,24.0,60,0.00,,,0.00,VWS V14.01,2013-03-25 16:44:00,
2013-03-25 11:45:00,21.6,11.3,30.39,North,356,8.0,24.0,64,0.00,,,0.00,VWS V14.01,2013-03-25 16:45:00,
2013-03-25 11:49:00,21.8,10.4,30.39,North,354,11.0,19.0,61,0.00,,,0.00,VWS V14.01,2013-03-25 16:49:00,
2013-03-25 11:54:00,21.4,10.4,30.39,North,350,11.0,21.0,62,0.00,,,0.00,VWS V14.01,2013-03-25 16:54:00,
2013-03-25 11:59:00,21.4,11.1,30.39,North,352,10.0,26.0,64,0.00,,,0.00,VWS V14.01,2013-03-25 16:59:00,
2013-03-25 12:00:00,21.8,11.5,30.38,North,354,11.0,26.0,64,0.00,,,0.00,VWS V14.01,2013-03-25 17:00:00,
2013-03-25 12:04:00,21.9,12.3,30.38,North,359,13.0,20.0,66,0.00,,,0.00,VWS V14.01,2013-03-25 17:04:00,
2013-03-25 12:09:00,22.1,9.6,30.38,North,356,17.0,21.0,58,0.00,,,0.00,VWS V14.01,2013-03-25 17:09:00,
2013-03-25 12:14:00,22.1,12.8,30.38,North,359,10.0,21.0,67,0.00,,,0.00,VWS V14.01,2013-03-25 17:14:00,
2013-03-25 12:15:00,21.8,10.8,30.39,North,354,17.0,21.0,62,0.00,,,0.00,VWS V14.01,2013-03-25 17:15:00,
2013-03-25 12:19:00,21.8,11.2,30.39,North,350,10.0,26.0,63,0.00,,,0.00,VWS V14.01,2013-03-25 17:19:00,
2013-03-25 12:24:00,21.6,9.9,30.39,North,349,8.0,26.0,60,0.00,,,0.00,VWS V14.01,2013-03-25 17:24:00,
2013-03-25 12:29:00,21.9,9.4,30.39,North,354,18.0,26.0,58,0.00,,,0.00,VWS V14.01,2013-03-25 17:29:00,
2013-03-25 12:30:00,22.1,10.4,30.39,North,359,17.0,26.0,60,0.00,,,0.00,VWS V14.01,2013-03-25 17:30:00,
2013-03-25 12:34:00,22.2,11.9,30.39,North,354,18.0,19.0,64,0.00,,,0.00,VWS V14.01,2013-03-25 17:34:00,
2013-03-25 12:39:00,22.1,10.7,30.39,NW,320,9.0,22.0,61,0.00,,,0.00,VWS V14.01,2013-03-25 17:39:00,
2013-03-25 12:44:00,22.4,9.1,30.39,North,0,15.0,22.0,56,0.00,,,0.00,VWS V14.01,2013-03-25 17:44:00,
2013-03-25 12:45:00,22.4,9.5,30.39,North,359,12.0,26.0,57,0.00,,,0.00,VWS V14.01,2013-03-25 17:45:00,
2013-03-25 12:49:00,22.4,9.1,30.39,North,4,6.0,14.0,56,0.00,,,0.00,VWS V14.01,2013-03-25 17:49:00,
2013-03-25 12:54:00,22.9,10.7,30.39,NNW,342,11.0,21.0,59,0.00,,,0.00,VWS V14.01,2013-03-25 17:54:00,
2013-03-25 12:59:00,22.5,10.4,30.39,North,359,10.0,21.0,59,0.00,,,0.00,VWS V14.01,2013-03-25 17:59:00,
2013-03-25 13:00:00,22.9,10.0,30.38,North,359,19.0,21.0,57,0.00,,,0.00,VWS V14.01,2013-03-25 18:00:00,
2013-03-25 13:04:00,22.7,9.8,30.38,North,354,17.0,24.0,57,0.00,,,0.00,VWS V14.01,2013-03-25 18:04:00,
2013-03-25 13:09:00,22.5,8.8,30.38,NNW,347,14.0,24.0,55,0.00,,,0.00,VWS V14.01,2013-03-25 18:09:00,
2013-03-25 13:14:00,22.7,10.2,30.38,North,0,12.0,24.0,58,0.00,,,0.00,VWS V14.01,2013-03-25 18:14:00,
2013-03-25 13:15:00,22.5,10.0,30.38,North,3,11.0,24.0,58,0.00,,,0.00,VWS V14.01,2013-03-25 18:15:00,
2013-03-25 13:19:00,22.7,9.8,30.38,North,359,17.0,19.0,57,0.00,,,0.00,VWS V14.01,2013-03-25 18:19:00,
2013-03-25 13:24:00,22.9,8.8,30.38,NW,320,2.0,24.0,54,0.00,,,0.00,VWS V14.01,2013-03-25 18:24:00,
2013-03-25 13:29:00,23.2,9.8,30.38,North,359,17.0,26.0,56,0.00,,,0.00,VWS V14.01,2013-03-25 18:29:00,
2013-03-25 13:30:00,22.9,9.2,30.38,North,357,8.0,26.0,55,0.00,,,0.00,VWS V14.01,2013-03-25 18:30:00,
2013-03-25 13:34:00,23.3,9.5,30.38,North,350,18.0,18.0,55,0.00,,,0.00,VWS V14.01,2013-03-25 18:34:00,
2013-03-25 13:39:00,23.2,9.8,30.38,North,354,12.0,24.0,56,0.00,,,0.00,VWS V14.01,2013-03-25 18:39:00,
2013-03-25 13:44:00,23.8,12.3,30.38,North,352,19.0,24.0,61,0.00,,,0.00,VWS V14.01,2013-03-25 18:44:00,
2013-03-25 13:45:00,23.5,11.7,30.37,North,0,12.0,24.0,60,0.00,,,0.00,VWS V14.01,2013-03-25 18:45:00,
2013-03-25 13:49:00,23.6,10.2,30.37,North,350,10.0,21.0,56,0.00,,,0.00,VWS V14.01,2013-03-25 18:49:00,
2013-03-25 13:54:00,24.1,9.0,30.37,NW,325,7.0,22.0,52,0.00,,,0.00,VWS V14.01,2013-03-25 18:54:00,
2013-03-25 13:59:00,24.4,9.7,30.37,North,0,12.0,22.0,53,0.00,,,0.00,VWS V14.01,2013-03-25 18:59:00,
2013-03-25 14:00:00,24.1,9.9,30.37,North,359,14.0,22.0,54,0.00,,,0.00,VWS V14.01,2013-03-25 19:00:00,
2013-03-25 14:04:00,24.1,9.0,30.37,North,359,17.0,18.0,52,0.00,,,0.00,VWS V14.01,2013-03-25 19:04:00,
2013-03-25 14:09:00,24.4,10.1,30.37,North,350,13.0,20.0,54,0.00,,,0.00,VWS V14.01,2013-03-25 19:09:00,
2013-03-25 14:14:00,24.4,10.6,30.37,North,359,14.0,20.0,55,0.00,,,0.00,VWS V14.01,2013-03-25 19:14:00,
2013-03-25 14:15:00,24.7,12.0,30.36,North,356,17.0,20.0,58,0.00,,,0.00,VWS V14.01,2013-03-25 19:15:00,
2013-03-25 14:19:00,24.7,13.2,30.36,North,356,17.0,21.0,61,0.00,,,0.00,VWS V14.01,2013-03-25 19:19:00,
2013-03-25 14:24:00,25.0,10.7,30.36,North,359,14.0,21.0,54,0.00,,,0.00,VWS V14.01,2013-03-25 19:24:00,
2013-03-25 14:29:00,25.0,10.3,30.36,North,357,8.0,25.0,53,0.00,,,0.00,VWS V14.01,2013-03-25 19:29:00,
2013-03-25 14:30:00,25.4,10.2,30.36,North,359,7.0,25.0,52,0.00,,,0.00,VWS V14.01,2013-03-25 19:30:00,
2013-03-25 14:34:00,25.6,11.7,30.36,North,0,2.0,12.0,55,0.00,,,0.00,VWS V14.01,2013-03-25 19:34:00,
2013-03-25 14:39:00,25.6,8.2,30.36,North,354,16.0,19.0,47,0.00,,,0.00,VWS V14.01,2013-03-25 19:39:00,
2013-03-25 14:44:00,25.4,9.4,30.36,North,353,10.0,19.0,50,0.00,,,0.00,VWS V14.01,2013-03-25 19:44:00,
2013-03-25 14:45:00,26.1,11.3,30.35,NNW,337,6.0,19.0,53,0.00,,,0.00,VWS V14.01,2013-03-25 19:45:00,
2013-03-25 14:49:00,26.4,8.9,30.35,WNW,298,3.0,13.0,47,0.00,,,0.00,VWS V14.01,2013-03-25 19:49:00,
2013-03-25 14:54:00,25.8,11.0,30.35,North,359,10.0,20.0,53,0.00,,,0.00,VWS V14.01,2013-03-25 19:54:00,
2013-03-25 14:59:00,25.8,9.7,30.35,NNW,347,8.0,20.0,50,0.00,,,0.00,VWS V14.01,2013-03-25 19:59:00,
2013-03-25 15:00:00,26.1,10.9,30.35,North,354,17.0,20.0,52,0.00,,,0.00,VWS V14.01,2013-03-25 20:00:00,
2013-03-25 15:04:00,26.0,10.8,30.35,North,10,12.0,18.0,52,0.00,,,0.00,VWS V14.01,2013-03-25 20:04:00,
2013-03-25 15:09:00,25.8,10.6,30.35,North,359,17.0,19.0,52,0.00,,,0.00,VWS V14.01,2013-03-25 20:09:00,
2013-03-25 15:14:00,26.1,10.0,30.35,North,359,17.0,19.0,50,0.00,,,0.00,VWS V14.01,2013-03-25 20:14:00,
2013-03-25 15:15:00,26.3,11.5,30.34,North,353,12.0,19.0,53,0.00,,,0.00,VWS V14.01,2013-03-25 20:15:00,
2013-03-25 15:19:00,26.3,11.1,30.34,North,359,10.0,17.0,52,0.00,,,0.00,VWS V14.01,2013-03-25 20:19:00,
2013-03-25 15:24:00,26.7,13.1,30.34,North,359,14.0,19.0,56,0.00,,,0.00,VWS V14.01,2013-03-25 20:24:00,
2013-03-25 15:29:00,26.7,11.9,30.34,North,359,16.0,19.0,53,0.00,,,0.00,VWS V14.01,2013-03-25 20:29:00,
2013-03-25 15:30:00,26.4,9.8,30.34,North,0,10.0,19.0,49,0.00,,,0.00,VWS V14.01,2013-03-25 20:30:00,
2013-03-25 15:34:00,26.6,10.9,30.34,North,356,7.0,16.0,51,0.00,,,0.00,VWS V14.01,2013-03-25 20:34:00,
2013-03-25 15:39:00,26.7,10.6,30.34,North,356,10.0,20.0,50,0.00,,,0.00,VWS V14.01,2013-03-25 20:39:00,
2013-03-25 15:44:00,26.7,11.4,30.34,North,352,7.0,20.0,52,0.00,,,0.00,VWS V14.01,2013-03-25 20:44:00,
2013-03-25 15:45:00,26.9,10.8,30.34,North,357,11.0,20.0,50,0.00,,,0.00,VWS V14.01,2013-03-25 20:45:00,
2013-03-25 15:49:00,26.9,10.3,30.34,North,354,11.0,19.0,49,0.00,,,0.00,VWS V14.01,2013-03-25 20:49:00,
2013-03-25 15:54:00,27.3,9.7,30.34,North,354,15.0,19.0,47,0.00,,,0.00,VWS V14.01,2013-03-25 20:54:00,
2013-03-25 15:59:00,27.3,9.7,30.34,NNW,337,2.0,19.0,47,0.00,,,0.00,VWS V14.01,2013-03-25 20:59:00,
2013-03-25 16:00:00,27.3,9.7,30.34,NNW,335,5.0,21.0,47,0.00,,,0.00,VWS V14.01,2013-03-25 21:00:00,
2013-03-25 16:04:00,27.6,10.9,30.34,North,359,12.0,20.0,49,0.00,,,0.00,VWS V14.01,2013-03-25 21:04:00,
2013-03-25 16:09:00,27.8,10.7,30.34,NNW,329,5.0,20.0,48,0.00,,,0.00,VWS V14.01,2013-03-25 21:09:00,
2013-03-25 16:14:00,27.9,10.8,30.34,NNE,28,7.0,20.0,48,0.00,,,0.00,VWS V14.01,2013-03-25 21:14:00,
2013-03-25 16:15:00,27.9,10.8,30.34,North,1,7.0,20.0,48,0.00,,,0.00,VWS V14.01,2013-03-25 21:15:00,
2013-03-25 16:19:00,27.8,11.1,30.34,North,0,16.0,18.0,49,0.00,,,0.00,VWS V14.01,2013-03-25 21:19:00,
2013-03-25 16:24:00,27.9,10.8,30.34,North,10,7.0,18.0,48,0.00,,,0.00,VWS V14.01,2013-03-25 21:24:00,
2013-03-25 16:29:00,27.9,10.8,30.34,North,359,8.0,18.0,48,0.00,,,0.00,VWS V14.01,2013-03-25 21:29:00,
2013-03-25 16:30:00,27.9,10.3,30.34,North,359,16.0,18.0,47,0.00,,,0.00,VWS V14.01,2013-03-25 21:30:00,
2013-03-25 16:34:00,27.9,12.1,30.34,North,359,13.0,18.0,51,0.00,,,0.00,VWS V14.01,2013-03-25 21:34:00,
2013-03-25 16:39:00,27.9,11.7,30.34,North,349,10.0,18.0,50,0.00,,,0.00,VWS V14.01,2013-03-25 21:39:00,
2013-03-25 16:44:00,28.1,13.2,30.34,North,0,10.0,21.0,53,0.00,,,0.00,VWS V14.01,2013-03-25 21:44:00,
2013-03-25 16:45:00,28.2,11.5,30.34,North,356,3.0,21.0,49,0.00,,,0.00,VWS V14.01,2013-03-25 21:45:00,
2013-03-25 16:49:00,28.4,12.6,30.34,North,0,5.0,8.0,51,0.00,,,0.00,VWS V14.01,2013-03-25 21:49:00,
2013-03-25 16:54:00,28.5,13.1,30.34,North,359,9.0,18.0,52,0.00,,,0.00,VWS V14.01,2013-03-25 21:54:00,
2013-03-25 16:59:00,28.1,11.4,30.34,North,350,8.0,18.0,49,0.00,,,0.00,VWS V14.01,2013-03-25 21:59:00,
2013-03-25 17:00:00,28.1,12.3,30.34,North,359,14.0,18.0,51,0.00,,,0.00,VWS V14.01,2013-03-25 22:00:00,
2013-03-25 17:04:00,28.2,12.0,30.34,North,359,14.0,15.0,50,0.00,,,0.00,VWS V14.01,2013-03-25 22:04:00,
2013-03-25 17:09:00,28.2,13.3,30.34,North,0,12.0,18.0,53,0.00,,,0.00,VWS V14.01,2013-03-25 22:09:00,
2013-03-25 17:14:00,28.1,10.9,30.34,North,354,9.0,18.0,48,0.00,,,0.00,VWS V14.01,2013-03-25 22:14:00,
2013-03-25 17:15:00,28.4,11.7,30.34,North,359,11.0,18.0,49,0.00,,,0.00,VWS V14.01,2013-03-25 22:15:00,
2013-03-25 17:19:00,28.5,11.8,30.34,North,359,7.0,12.0,49,0.00,,,0.00,VWS V14.01,2013-03-25 22:19:00,
2013-03-25 17:24:00,28.5,12.2,30.34,North,7,9.0,14.0,50,0.00,,,0.00,VWS V14.01,2013-03-25 22:24:00,
2013-03-25 17:29:00,28.7,12.0,30.34,North,359,14.0,17.0,49,0.00,,,0.00,VWS V14.01,2013-03-25 22:29:00,
2013-03-25 17:30:00,28.8,12.5,30.33,North,356,13.0,17.0,50,0.00,,,0.00,VWS V14.01,2013-03-25 22:30:00,
2013-03-25 17:34:00,28.8,12.1,30.33,North,0,10.0,16.0,49,0.00,,,0.00,VWS V14.01,2013-03-25 22:34:00,
2013-03-25 17:39:00,28.7,11.5,30.33,North,0,10.0,16.0,48,0.00,,,0.00,VWS V14.01,2013-03-25 22:39:00,
2013-03-25 17:44:00,29.0,11.3,30.33,North,359,11.0,16.0,47,0.00,,,0.00,VWS V14.01,2013-03-25 22:44:00,
2013-03-25 17:45:00,29.1,12.3,30.33,North,1,9.0,16.0,49,0.00,,,0.00,VWS V14.01,2013-03-25 22:45:00,
2013-03-25 17:49:00,29.3,15.1,30.33,North,1,7.0,10.0,55,0.00,,,0.00,VWS V14.01,2013-03-25 22:49:00,
2013-03-25 17:54:00,29.1,14.5,30.33,NNE,25,4.0,11.0,54,0.00,,,0.00,VWS V14.01,2013-03-25 22:54:00,
2013-03-25 17:59:00,29.1,11.9,30.33,NNE,30,6.0,14.0,48,0.00,,,0.00,VWS V14.01,2013-03-25 22:59:00,
2013-03-25 18:00:00,29.1,11.4,30.33,North,352,7.0,14.0,47,0.00,,,0.00,VWS V14.01,2013-03-25 23:00:00,
2013-03-25 18:04:00,29.3,13.9,30.33,North,359,6.0,10.0,52,0.00,,,0.00,VWS V14.01,2013-03-25 23:04:00,
2013-03-25 18:09:00,29.4,12.6,30.33,North,7,10.0,13.0,49,0.00,,,0.00,VWS V14.01,2013-03-25 23:09:00,
2013-03-25 18:14:00,29.3,11.1,30.33,North,353,6.0,13.0,46,0.00,,,0.00,VWS V14.01,2013-03-25 23:14:00,
2013-03-25 18:15:00,29.4,13.1,30.33,North,359,13.0,13.0,50,0.00,,,0.00,VWS V14.01,2013-03-25 23:15:00,
2013-03-25 18:19:00,29.5,12.2,30.33,NNW,347,6.0,14.0,48,0.00,,,0.00,VWS V14.01,2013-03-25 23:19:00,
2013-03-25 18:24:00,29.7,12.9,30.33,North,352,7.0,16.0,49,0.00,,,0.00,VWS V14.01,2013-03-25 23:24:00,
2013-03-25 18:29:00,29.8,12.5,30.33,North,0,8.0,16.0,48,0.00,,,0.00,VWS V14.01,2013-03-25 23:29:00,
2013-03-25 18:30:00,29.7,11.5,30.33,North,359,7.0,16.0,46,0.00,,,0.00,VWS V14.01,2013-03-25 23:30:00,
2013-03-25 18:34:00,30.0,13.6,30.33,North,8,10.0,12.0,50,0.00,,,0.00,VWS V14.01,2013-03-25 23:34:00,
2013-03-25 18:39:00,30.1,15.1,30.33,North,10,6.0,14.0,53,0.00,,,0.00,VWS V14.01,2013-03-25 23:39:00,
2013-03-25 18:44:00,30.0,13.2,30.33,North,6,6.0,14.0,49,0.00,,,0.00,VWS V14.01,2013-03-25 23:44:00,
2013-03-25 18:45:00,30.0,13.6,30.33,North,0,6.0,14.0,50,0.00,,,0.00,VWS V14.01,2013-03-25 23:45:00,
2013-03-25 18:49:00,29.8,12.0,30.33,NNE,25,10.0,11.0,47,0.00,,,0.00,VWS V14.01,2013-03-25 23:49:00,
2013-03-25 18:54:00,29.7,11.0,30.33,North,354,6.0,13.0,45,0.00,,,0.00,VWS V14.01,2013-03-25 23:54:00,
2013-03-25 18:59:00,30.0,14.1,30.33,North,359,9.0,13.0,51,0.00,,,0.00,VWS V14.01,2013-03-25 23:59:00,
2013-03-25 19:00:00,29.8,12.5,30.33,North,359,8.0,13.0,48,0.00,,,0.00,VWS V14.01,2013-03-26 00:00:00,
2013-03-25 19:04:00,29.8,13.4,30.33,North,359,8.0,11.0,50,0.00,,,0.00,VWS V14.01,2013-03-26 00:04:00,
2013-03-25 19:09:00,29.7,11.9,30.33,North,359,10.0,12.0,47,0.00,,,0.00,VWS V14.01,2013-03-26 00:09:00,
2013-03-25 19:14:00,29.8,13.9,30.33,North,0,7.0,14.0,51,0.00,,,0.00,VWS V14.01,2013-03-26 00:14:00,
2013-03-25 19:15:00,29.7,12.4,30.35,North,1,5.0,14.0,48,0.00,,,0.00,VWS V14.01,2013-03-26 00:15:00,
2013-03-25 19:19:00,29.7,12.4,30.35,North,354,5.0,10.0,48,0.00,,,0.00,VWS V14.01,2013-03-26 00:19:00,
2013-03-25 19:24:00,29.5,13.2,30.35,NNE,23,6.0,10.0,50,0.00,,,0.00,VWS V14.01,2013-03-26 00:24:00,
2013-03-25 19:29:00,29.4,12.1,30.35,North,10,5.0,12.0,48,0.00,,,0.00,VWS V14.01,2013-03-26 00:29:00,
2013-03-25 19:30:00,29.1,11.4,30.35,NNE,23,7.0,12.0,47,0.00,,,0.00,VWS V14.01,2013-03-26 00:30:00,
2013-03-25 19:34:00,29.1,12.3,30.35,North,0,6.0,7.0,49,0.00,,,0.00,VWS V14.01,2013-03-26 00:34:00,
2013-03-25 19:39:00,28.8,12.5,30.35,NNE,24,4.0,8.0,50,0.00,,,0.00,VWS V14.01,2013-03-26 00:39:00,
2013-03-25 19:44:00,28.5,14.4,30.35,NE,42,10.0,10.0,55,0.00,,,0.00,VWS V14.01,2013-03-26 00:44:00,
2013-03-25 19:45:00,28.2,14.9,30.36,NE,44,7.0,12.0,57,0.00,,,0.00,VWS V14.01,2013-03-26 00:45:00,
2013-03-25 19:49:00,27.8,12.5,30.36,NNE,32,7.0,13.0,52,0.00,,,0.00,VWS V14.01,2013-03-26 00:49:00,
2013-03-25 19:54:00,27.6,13.6,30.36,NNE,32,7.0,13.0,55,0.00,,,0.00,VWS V14.01,2013-03-26 00:54:00,
2013-03-25 19:59:00,27.2,13.2,30.36,NE,40,5.0,13.0,55,0.00,,,0.00,VWS V14.01,2013-03-26 00:59:00,
2013-03-25 20:00:00,27.2,13.6,30.36,NE,41,6.0,13.0,56,0.00,,,0.00,VWS V14.01,2013-03-26 01:00:00,
2013-03-25 20:04:00,27.2,15.2,30.36,NE,38,5.0,8.0,60,0.00,,,0.00,VWS V14.01,2013-03-26 01:04:00,
2013-03-25 20:09:00,27.0,13.8,30.36,NE,40,5.0,9.0,57,0.00,,,0.00,VWS V14.01,2013-03-26 01:09:00,
2013-03-25 20:14:00,26.7,14.3,30.36,NE,40,7.0,12.0,59,0.00,,,0.00,VWS V14.01,2013-03-26 01:14:00,
2013-03-25 20:15:00,26.6,14.2,30.36,NE,45,10.0,12.0,59,0.00,,,0.00,VWS V14.01,2013-03-26 01:15:00,
2013-03-25 20:19:00,26.3,15.4,30.36,NE,47,6.0,12.0,63,0.00,,,0.00,VWS V14.01,2013-03-26 01:19:00,
2013-03-25 20:24:00,25.8,15.3,30.36,NNE,31,8.0,12.0,64,0.00,,,0.00,VWS V14.01,2013-03-26 01:24:00,
2013-03-25 20:29:00,25.4,14.6,30.36,NNE,32,10.0,13.0,63,0.00,,,0.00,VWS V14.01,2013-03-26 01:29:00,
2013-03-25 20:30:00,25.3,13.4,30.36,NE,42,10.0,13.0,60,0.00,,,0.00,VWS V14.01,2013-03-26 01:30:00,
2013-03-25 20:34:00,25.3,15.2,30.36,NE,42,9.0,10.0,65,0.00,,,0.00,VWS V14.01,2013-03-26 01:34:00,
2013-03-25 20:39:00,25.0,14.6,30.36,NE,47,10.0,11.0,64,0.00,,,0.00,VWS V14.01,2013-03-26 01:39:00,
2013-03-25 20:44:00,24.8,15.4,30.36,ENE,62,10.0,11.0,67,0.00,,,0.00,VWS V14.01,2013-03-26 01:44:00,
2013-03-25 20:45:00,24.7,13.9,30.37,NE,42,8.0,12.0,63,0.00,,,0.00,VWS V14.01,2013-03-26 01:45:00,
2013-03-25 20:49:00,24.5,13.7,30.37,NE,41,7.0,12.0,63,0.00,,,0.00,VWS V14.01,2013-03-26 01:49:00,
2013-03-25 20:54:00,24.4,14.7,30.37,NE,42,7.0,12.0,66,0.00,,,0.00,VWS V14.01,2013-03-26 01:54:00,
2013-03-25 20:59:00,24.2,14.5,30.37,NNE,28,5.0,12.0,66,0.00,,,0.00,VWS V14.01,2013-03-26 01:59:00,
2013-03-25 21:00:00,23.9,14.9,30.38,NE,41,6.0,12.0,68,0.00,,,0.00,VWS V14.01,2013-03-26 02:00:00,
2013-03-25 21:04:00,23.8,15.1,30.38,NNE,28,6.0,11.0,69,0.00,,,0.00,VWS V14.01,2013-03-26 02:04:00,
2013-03-25 21:09:00,23.6,15.6,30.38,NE,41,5.0,11.0,71,0.00,,,0.00,VWS V14.01,2013-03-26 02:09:00,
2013-03-25 21:14:00,23.3,15.3,30.38,NE,45,4.0,11.0,71,0.00,,,0.00,VWS V14.01,2013-03-26 02:14:00,
2013-03-25 21:15:00,23.0,14.7,30.38,NNE,32,8.0,11.0,70,0.00,,,0.00,VWS V14.01,2013-03-26 02:15:00,
2013-03-25 21:19:00,23.2,15.2,30.38,NE,42,6.0,8.0,71,0.00,,,0.00,VWS V14.01,2013-03-26 02:19:00,
2013-03-25 21:24:00,22.9,14.9,30.38,NNE,32,4.0,11.0,71,0.00,,,0.00,VWS V14.01,2013-03-26 02:24:00,
2013-03-25 21:29:00,22.7,15.1,30.38,NE,37,3.0,11.0,72,0.00,,,0.00,VWS V14.01,2013-03-26 02:29:00,
2013-03-25 21:30:00,22.7,14.4,30.38,NE,38,4.0,11.0,70,0.00,,,0.00,VWS V14.01,2013-03-26 02:30:00,
2013-03-25 21:34:00,22.5,14.5,30.38,NNE,28,8.0,8.0,71,0.00,,,0.00,VWS V14.01,2013-03-26 02:34:00,
2013-03-25 21:39:00,22.5,15.2,30.38,NE,38,7.0,10.0,73,0.00,,,0.00,VWS V14.01,2013-03-26 02:39:00,
2013-03-25 21:44:00,22.5,15.2,30.38,NE,37,8.0,10.0,73,0.00,,,0.00,VWS V14.01,2013-03-26 02:44:00,
2013-03-25 21:45:00,22.4,15.1,30.39,NE,38,3.0,10.0,73,0.00,,,0.00,VWS V14.01,2013-03-26 02:45:00,
2013-03-25 21:49:00,22.2,14.6,30.39,NE,37,7.0,7.0,72,0.00,,,0.00,VWS V14.01,2013-03-26 02:49:00,
2013-03-25 21:54:00,22.2,15.5,30.39,NE,38,7.0,9.0,75,0.00,,,0.00,VWS V14.01,2013-03-26 02:54:00,
2013-03-25 21:59:00,22.1,15.1,30.39,NNE,28,6.0,11.0,74,0.00,,,0.00,VWS V14.01,2013-03-26 02:59:00,
2013-03-25 22:00:00,22.1,15.1,30.39,NE,52,4.0,11.0,74,0.00,,,0.00,VWS V14.01,2013-03-26 03:00:00,
2013-03-25 22:04:00,22.1,15.7,30.39,NE,55,2.0,7.0,76,0.00,,,0.00,VWS V14.01,2013-03-26 03:04:00,
2013-03-25 22:09:00,21.9,13.3,30.39,NE,47,5.0,8.0,69,0.00,,,0.00,VWS V14.01,2013-03-26 03:09:00,
2013-03-25 22:14:00,21.8,13.5,30.39,NE,55,7.0,8.0,70,0.00,,,0.00,VWS V14.01,2013-03-26 03:14:00,
2013-03-25 22:15:00,21.6,12.7,30.39,NNE,31,7.0,8.0,68,0.00,,,0.00,VWS V14.01,2013-03-26 03:15:00,
2013-03-25 22:19:00,21.6,13.3,30.39,NE,51,3.0,7.0,70,0.00,,,0.00,VWS V14.01,2013-03-26 03:19:00,
2013-03-25 22:24:00,21.6,13.3,30.39,NE,35,3.0,7.0,70,0.00,,,0.00,VWS V14.01,2013-03-26 03:24:00,
2013-03-25 22:29:00,21.6,13.0,30.39,NE,34,3.0,7.0,69,0.00,,,0.00,VWS V14.01,2013-03-26 03:29:00,
2013-03-25 22:30:00,21.6,12.7,30.39,NNE,31,6.0,7.0,68,0.00,,,0.00,VWS V14.01,2013-03-26 03:30:00,
2013-03-25 22:34:00,21.4,13.1,30.39,NE,44,3.0,7.0,70,0.00,,,0.00,VWS V14.01,2013-03-26 03:34:00,
2013-03-25 22:39:00,21.6,13.3,30.39,NE,35,3.0,7.0,70,0.00,,,0.00,VWS V14.01,2013-03-26 03:39:00,
2013-03-25 22:44:00,21.6,13.3,30.39,NE,44,3.0,7.0,70,0.00,,,0.00,VWS V14.01,2013-03-26 03:44:00,
2013-03-25 22:45:00,21.6,13.3,30.39,NE,44,3.0,7.0,70,0.00,,,0.00,VWS V14.01,2013-03-26 03:45:00,
2013-03-25 22:49:00,21.6,13.3,30.39,NNE,31,5.0,7.0,70,0.00,,,0.00,VWS V14.01,2013-03-26 03:49:00,
2013-03-25 22:54:00,21.6,13.0,30.39,NE,35,4.0,8.0,69,0.00,,,0.00,VWS V14.01,2013-03-26 03:54:00,
2013-03-25 22:59:00,21.6,13.7,30.39,NE,38,4.0,8.0,71,0.00,,,0.00,VWS V14.01,2013-03-26 03:59:00,
2013-03-25 23:00:00,21.4,13.5,30.39,NE,38,5.0,8.0,71,0.00,,,0.00,VWS V14.01,2013-03-26 04:00:00,
2013-03-25 23:05:00,21.6,13.3,30.39,NE,38,5.0,7.0,70,0.00,,,0.00,VWS V14.01,2013-03-26 04:05:00,
2013-03-25 23:10:00,21.6,13.7,30.39,NE,41,4.0,7.0,71,0.00,,,0.00,VWS V14.01,2013-03-26 04:10:00,
2013-03-25 23:15:00,21.6,13.7,30.39,NNE,32,0.0,7.0,71,0.00,,,0.00,VWS V14.01,2013-03-26 04:15:00,
2013-03-25 23:20:00,21.6,13.0,30.39,NE,35,2.0,5.0,69,0.00,,,0.00,VWS V14.01,2013-03-26 04:20:00,
2013-03-25 23:25:00,21.6,13.7,30.39,NE,38,3.0,5.0,71,0.00,,,0.00,VWS V14.01,2013-03-26 04:25:00,
2013-03-25 23:30:00,21.6,13.7,30.39,NE,38,0.0,5.0,71,0.00,,,0.00,VWS V14.01,2013-03-26 04:30:00,
2013-03-25 23:35:00,21.6,14.3,30.39,NE,38,0.0,0.0,73,0.00,,,0.00,VWS V14.01,2013-03-26 04:35:00,
2013-03-25 23:40:00,21.6,13.3,30.39,NE,38,0.0,2.0,70,0.00,,,0.00,VWS V14.01,2013-03-26 04:40:00,
2013-03-25 23:45:00,21.4,12.5,30.39,NE,38,0.0,3.0,68,0.00,,,0.00,VWS V14.01,2013-03-26 04:45:00,
2013-03-25 23:50:00,21.4,12.2,30.39,NE,38,0.0,3.0,67,0.00,,,0.00,VWS V14.01,2013-03-26 04:50:00,
2013-03-25 23:55:00,21.3,12.7,30.39,NE,38,1.0,3.0,69,0.00,,,0.00,VWS V14.01,2013-03-26 04:55:00,